Time;durP1;ratioP1;P1;durP2;ratioP2;P2;SDS_P1;SDS_P2;PMS_P1;PMS_P2;Temp;Humidity;BMP_temperature;BMP_pressure;BME280_temperature;BME280_humidity;BME280_pressure;Samples;Min_cycle;Max_cycle;Signal;HPM_P1;HPM_P2
2020/12/24 00:01:48;;;;;;;1.83;1.13;;;;;;;9.77;100.00;153868.44;5025997;28;20443;-81
2020/12/24 00:04:23;;;;;;;2.87;0.80;;;;;;;9.75;100.00;153864.56;5035922;28;20458;-81
2020/12/24 00:06:59;;;;;;;0.67;0.60;;;;;;;9.76;100.00;153867.19;5040080;28;20547;-81
2020/12/24 00:09:34;;;;;;;0.60;0.40;;;;;;;9.74;100.00;153861.97;5040611;28;20456;-81
2020/12/24 00:12:09;;;;;;;0.90;0.47;;;;;;;9.66;100.00;153841.25;5037127;28;20478;-81
2020/12/24 00:14:44;;;;;;;1.33;0.40;;;;;;;9.68;100.00;153846.47;5044994;28;20450;-81
2020/12/24 00:17:21;;;;;;;0.90;0.50;;;;;;;9.69;100.00;153847.72;5034642;28;21123;-80
2020/12/24 00:19:57;;;;;;;0.83;0.60;;;;;;;9.67;98.84;153843.88;5061471;28;20473;-80
2020/12/24 00:22:32;;;;;;;1.17;0.50;;;;;;;9.59;98.05;153823.16;5052335;28;20449;-80
2020/12/24 00:25:08;;;;;;;0.80;0.57;;;;;;;9.59;99.83;153823.16;5054102;28;20548;-81
2020/12/24 00:27:44;;;;;;;0.80;0.50;;;;;;;9.57;95.92;153818.00;5052551;28;20540;-80
2020/12/24 00:30:19;;;;;;;2.47;0.40;;;;;;;9.54;99.73;153810.25;5039826;28;20547;-81
2020/12/24 00:32:55;;;;;;;0.90;0.53;;;;;;;9.51;96.80;153801.16;5042805;28;20445;-80
2020/12/24 00:35:31;;;;;;;1.60;0.93;;;;;;;9.46;97.22;153789.53;5055298;28;20465;-80
2020/12/24 00:38:07;;;;;;;0.77;0.43;;;;;;;9.46;95.46;153789.53;5050153;28;20435;-80
2020/12/24 00:40:43;;;;;;;0.80;0.40;;;;;;;9.47;94.37;153792.13;5040129;28;20433;-80
2020/12/24 00:43:18;;;;;;;1.10;0.60;;;;;;;9.52;97.02;153803.78;5053263;28;20441;-80
2020/12/24 00:45:54;;;;;;;0.73;0.33;;;;;;;9.51;98.19;153802.47;5035906;28;20434;-80
2020/12/24 00:48:30;;;;;;;1.23;0.50;;;;;;;9.48;95.27;153793.41;5040288;28;20441;-81
2020/12/24 00:51:05;;;;;;;1.07;0.60;;;;;;;9.45;93.81;153786.94;5039435;28;20445;-80
2020/12/24 00:53:41;;;;;;;2.17;0.60;;;;;;;9.44;98.07;153784.38;5037027;28;20453;-80
2020/12/24 00:56:16;;;;;;;2.37;0.70;;;;;;;9.45;98.64;153786.94;5064075;28;20903;-80
2020/12/24 00:59:04;;;;;;;1.20;0.60;;;;;;;9.35;95.63;153761.06;5039837;28;20481;-80
2020/12/24 01:01:39;;;;;;;0.90;0.60;;;;;;;9.29;95.80;153745.59;5054687;28;21116;-80
2020/12/24 01:04:15;;;;;;;1.03;0.53;;;;;;;9.31;97.54;153750.75;5053673;28;20503;-81
2020/12/24 01:06:51;;;;;;;1.97;1.20;;;;;;;9.27;97.59;153739.06;5054998;28;20469;-81
2020/12/24 01:09:26;;;;;;;0.80;0.70;;;;;;;9.26;98.88;153736.50;5037901;28;20536;-81
2020/12/24 01:12:02;;;;;;;1.20;0.80;;;;;;;9.26;100.00;153737.81;5070826;28;20454;-81
2020/12/24 01:14:37;;;;;;;1.13;0.50;;;;;;;9.20;100.00;153722.28;5055221;28;21127;-81
2020/12/24 01:17:12;;;;;;;0.90;0.53;;;;;;;9.18;100.00;153717.13;5053154;28;20813;-81
2020/12/24 01:19:48;;;;;;;0.80;0.50;;;;;;;9.18;100.00;153718.41;5054962;28;20563;-80
2020/12/24 01:22:24;;;;;;;1.03;0.80;;;;;;;9.16;100.00;153713.22;5053820;28;20960;-80
2020/12/24 01:24:59;;;;;;;0.93;0.50;;;;;;;9.13;100.00;153704.19;5050798;28;20445;-81
2020/12/24 01:27:35;;;;;;;0.60;0.50;;;;;;;9.15;100.00;153709.34;5054487;28;21031;-80
2020/12/24 01:30:10;;;;;;;1.70;0.70;;;;;;;9.07;100.00;153689.97;5052953;28;20449;-80
2020/12/24 01:32:45;;;;;;;0.93;0.80;;;;;;;9.08;100.00;153692.50;5038486;28;20443;-81
2020/12/24 01:35:21;;;;;;;0.90;0.53;;;;;;;9.04;100.00;153680.88;5063459;28;20461;-81
2020/12/24 01:37:57;;;;;;;0.70;0.50;;;;;;;9.06;100.00;153686.06;5051881;28;20442;-80
2020/12/24 01:40:32;;;;;;;0.87;0.50;;;;;;;9.05;100.00;153683.50;5067527;28;20445;-80
2020/12/24 01:43:07;;;;;;;1.07;0.60;;;;;;;9.03;100.00;153679.59;5054364;28;20422;-80
2020/12/24 01:45:42;;;;;;;0.80;0.40;;;;;;;9.05;100.00;153684.75;5053706;28;20450;-80
2020/12/24 01:48:17;;;;;;;0.83;0.70;;;;;;;9.03;100.00;153679.59;5052622;28;20485;-80
2020/12/24 01:50:53;;;;;;;1.10;0.40;;;;;;;9.09;100.00;153695.13;5040651;28;20479;-80
2020/12/24 01:53:29;;;;;;;0.93;0.60;;;;;;;9.10;100.00;153696.41;5051474;28;20452;-80
2020/12/24 01:56:04;;;;;;;0.80;0.50;;;;;;;9.04;100.00;153680.88;5038808;28;20925;-80
2020/12/24 01:58:41;;;;;;;0.60;0.40;;;;;;;9.04;100.00;153682.19;5054087;28;20465;-80
2020/12/24 02:01:16;;;;;;;0.73;0.33;;;;;;;9.02;100.00;153675.72;5053674;28;20450;-80
2020/12/24 02:03:51;;;;;;;1.30;0.50;;;;;;;8.98;100.00;153666.66;5054413;28;21090;-80
2020/12/24 02:06:27;;;;;;;0.83;0.53;;;;;;;8.93;100.00;153652.44;5046635;28;20465;-81
2020/12/24 02:09:03;;;;;;;0.70;0.50;;;;;;;8.91;100.00;153648.56;5048756;28;20439;-80
2020/12/24 02:11:39;;;;;;;0.70;0.50;;;;;;;8.91;100.00;153647.28;5055588;28;20441;-80
2020/12/24 02:14:14;;;;;;;0.70;0.43;;;;;;;8.94;100.00;153655.03;5053744;28;20449;-80
2020/12/24 02:16:50;;;;;;;1.63;0.50;;;;;;;8.88;100.00;153640.81;5043399;28;20818;-80
2020/12/24 02:19:25;;;;;;;1.00;0.60;;;;;;;8.84;100.00;153629.19;5050466;28;20473;-81
2020/12/24 02:22:01;;;;;;;1.33;0.40;;;;;;;8.79;97.01;153616.25;5054108;28;20465;-80
2020/12/24 02:24:41;;;;;;;0.97;0.50;;;;;;;8.76;98.82;153609.81;5032872;28;20945;-80
2020/12/24 02:27:16;;;;;;;1.40;0.70;;;;;;;8.75;98.14;153605.91;5046864;28;20784;-80
2020/12/24 02:29:51;;;;;;;1.17;0.50;;;;;;;8.69;98.69;153590.38;5046338;28;20442;-80
2020/12/24 02:32:26;;;;;;;1.60;0.50;;;;;;;8.66;98.29;153582.66;5053306;28;20454;-80
2020/12/24 02:35:01;;;;;;;3.17;0.80;;;;;;;8.60;98.33;153567.13;5038675;28;20441;-80
2020/12/24 02:37:37;;;;;;;0.80;0.40;;;;;;;8.57;96.48;153561.97;5069086;28;20453;-80
2020/12/24 02:40:13;;;;;;;1.20;0.60;;;;;;;8.58;97.74;153564.53;5048870;28;20466;-80
2020/12/24 02:42:48;;;;;;;1.90;0.50;;;;;;;8.55;98.88;153555.50;5051968;28;20437;-80
2020/12/24 02:45:23;;;;;;;0.70;0.43;;;;;;;8.45;98.90;153530.91;5049756;28;20446;-80
2020/12/24 02:47:59;;;;;;;0.60;0.40;;;;;;;8.45;99.26;153530.91;5036674;28;20904;-80
2020/12/24 02:50:34;;;;;;;1.73;0.47;;;;;;;8.40;97.51;153516.69;5031250;28;20447;-80
2020/12/24 02:53:10;;;;;;;1.00;0.43;;;;;;;8.34;98.30;153502.47;5035984;28;20450;-80
2020/12/24 02:55:45;;;;;;;4.23;0.70;;;;;;;8.40;96.10;153518.00;5051587;28;20476;-80
2020/12/24 02:58:20;;;;;;;0.90;0.50;;;;;;;8.37;97.74;153510.22;5033333;28;20453;-80
2020/12/24 03:00:55;;;;;;;0.90;0.53;;;;;;;8.33;96.18;153498.63;5056188;28;20801;-80
2020/12/24 03:03:30;;;;;;;1.20;0.53;;;;;;;8.30;97.36;153492.16;5056419;28;20435;-80
2020/12/24 03:06:06;;;;;;;1.60;0.67;;;;;;;8.30;99.16;153490.84;5040271;28;20519;-80
2020/12/24 03:08:42;;;;;;;1.40;0.53;;;;;;;8.30;99.19;153492.16;5054191;28;20450;-80
2020/12/24 03:11:17;;;;;;;0.73;0.50;;;;;;;8.29;98.93;153488.25;5044164;28;20438;-80
2020/12/24 03:13:52;;;;;;;3.17;0.83;;;;;;;8.23;97.10;153474.03;5064646;28;20457;-80
2020/12/24 03:16:28;;;;;;;1.47;0.50;;;;;;;8.24;98.20;153475.28;5056101;28;20441;-80
2020/12/24 03:19:03;;;;;;;0.80;0.60;;;;;;;8.19;100.00;153463.66;5058746;28;21020;-80
2020/12/24 03:21:39;;;;;;;2.70;0.60;;;;;;;8.11;98.04;153441.69;5068087;28;20484;-80
2020/12/24 03:24:15;;;;;;;0.90;0.40;;;;;;;8.10;98.05;153439.13;5040740;28;20948;-80
2020/12/24 03:26:50;;;;;;;1.13;0.60;;;;;;;8.01;97.07;153417.16;5046439;28;20441;-80
2020/12/24 03:29:26;;;;;;;0.60;0.40;;;;;;;7.99;97.26;153413.25;5056279;28;20532;-80
2020/12/24 03:32:01;;;;;;;0.60;0.40;;;;;;;7.97;96.83;153408.09;5073994;28;20440;-80
2020/12/24 03:34:36;;;;;;;2.30;0.50;;;;;;;7.98;100.00;153409.41;5063193;28;20484;-80
2020/12/24 03:37:12;;;;;;;0.60;0.30;;;;;;;7.94;98.60;153399.09;5040717;28;20442;-80
2020/12/24 03:39:49;;;;;;;1.20;0.80;;;;;;;7.91;97.87;153391.31;5042246;28;20960;-80
2020/12/24 03:42:24;;;;;;;1.70;0.67;;;;;;;7.93;100.00;153396.47;5056608;28;20453;-80
2020/12/24 03:45:00;;;;;;;1.53;0.50;;;;;;;7.91;100.00;153392.63;5056780;28;21070;-80
2020/12/24 03:47:35;;;;;;;0.83;0.50;;;;;;;7.90;98.40;153388.72;5034909;28;20450;-80
2020/12/24 03:50:11;;;;;;;0.90;0.70;;;;;;;7.82;98.46;153368.03;5073705;28;20450;-80
2020/12/24 03:52:46;;;;;;;0.80;0.50;;;;;;;7.81;99.11;153365.50;5037349;28;20473;-80
2020/12/24 03:55:22;;;;;;;1.50;0.57;;;;;;;7.85;100.00;153375.81;5043143;28;20485;-81
2020/12/24 03:57:58;;;;;;;0.70;0.40;;;;;;;7.79;100.00;153360.28;5055165;28;20935;-80
2020/12/24 04:00:33;;;;;;;1.20;0.70;;;;;;;7.75;100.00;153351.28;5039220;28;20979;-80
2020/12/24 04:03:08;;;;;;;0.90;0.60;;;;;;;7.76;100.00;153352.53;5054920;28;20465;-80
2020/12/24 04:05:44;;;;;;;1.60;0.70;;;;;;;7.73;100.00;153344.81;5038110;28;20473;-80
2020/12/24 04:08:19;;;;;;;0.80;0.57;;;;;;;7.73;100.00;153344.81;5053805;28;20453;-80
2020/12/24 04:10:55;;;;;;;1.00;0.60;;;;;;;7.71;100.00;153340.91;5059600;28;20513;-79
2020/12/24 04:13:31;;;;;;;1.20;0.50;;;;;;;7.73;100.00;153344.81;5055643;28;20465;-80
2020/12/24 04:16:06;;;;;;;1.37;0.50;;;;;;;7.69;99.74;153334.47;5053165;28;20450;-80
2020/12/24 04:18:41;;;;;;;0.50;0.40;;;;;;;7.78;100.00;153357.72;5060072;28;20469;-80
2020/12/24 04:21:16;;;;;;;2.40;0.70;;;;;;;7.71;100.00;153340.91;5048618;28;21011;-80
2020/12/24 04:23:52;;;;;;;0.73;0.70;;;;;;;7.69;100.00;153334.47;5038728;28;20520;-80
2020/12/24 04:26:28;;;;;;;0.73;0.50;;;;;;;7.76;99.16;153353.84;5045620;28;20445;-80
2020/12/24 04:29:03;;;;;;;0.57;0.37;;;;;;;7.71;99.05;153340.91;5033388;28;20812;-80
2020/12/24 04:31:42;;;;;;;0.60;0.40;;;;;;;7.71;97.93;153339.63;5054075;28;20434;-80
2020/12/24 04:34:17;;;;;;;0.87;0.50;;;;;;;7.60;98.94;153311.25;5038078;28;20446;-80
2020/12/24 04:36:53;;;;;;;0.87;0.60;;;;;;;7.59;100.00;153308.63;5053670;28;20450;-80
2020/12/24 04:39:28;;;;;;;0.80;0.57;;;;;;;7.60;100.00;153311.25;5070085;28;20477;-80
2020/12/24 04:42:04;;;;;;;1.33;0.50;;;;;;;7.60;100.00;153311.25;5046818;28;20437;-80
2020/12/24 04:44:41;;;;;;;0.80;0.60;;;;;;;7.62;100.00;153316.41;5053756;28;20453;-80
2020/12/24 04:47:18;;;;;;;1.63;0.50;;;;;;;7.62;100.00;153316.41;5048649;28;20530;-80
2020/12/24 04:49:55;;;;;;;0.90;0.53;;;;;;;7.60;100.00;153312.50;5054743;28;20442;-80
2020/12/24 04:52:31;;;;;;;0.83;0.50;;;;;;;7.57;100.00;153303.47;5037953;28;20450;-80
2020/12/24 04:55:06;;;;;;;0.60;0.40;;;;;;;7.53;100.00;153293.13;5035769;28;20441;-79
2020/12/24 04:57:43;;;;;;;0.60;0.30;;;;;;;7.56;100.00;153300.88;5032133;28;20462;-79
2020/12/24 05:00:19;;;;;;;1.23;0.40;;;;;;;7.51;100.00;153289.28;5056557;28;20474;-79
2020/12/24 05:03:05;;;;;;;1.27;0.50;;;;;;;7.46;100.00;153276.34;5063888;28;20496;-79
2020/12/24 05:05:40;;;;;;;0.90;0.50;;;;;;;7.45;100.00;153272.47;5039372;28;20494;-80
2020/12/24 05:08:15;;;;;;;0.80;0.50;;;;;;;7.36;100.00;153250.50;5054259;28;20912;-80
2020/12/24 05:11:03;;;;;;;0.80;0.40;;;;;;;7.36;100.00;153251.78;5054887;28;20441;-80
2020/12/24 05:13:39;;;;;;;0.50;0.30;;;;;;;7.34;100.00;153246.63;5053454;28;20544;-79
2020/12/24 05:16:15;;;;;;;2.80;0.87;;;;;;;7.30;100.00;153235.03;5035558;28;20445;-79
2020/12/24 05:18:51;;;;;;;0.63;0.37;;;;;;;7.30;100.00;153235.03;5051060;28;20952;-79
2020/12/24 05:21:33;;;;;;;0.90;0.80;;;;;;;7.23;98.95;153218.22;5047488;28;20439;-80
2020/12/24 05:24:22;;;;;;;0.93;0.70;;;;;;;7.18;100.00;153205.31;5036892;28;20434;-79
2020/12/24 05:27:08;;;;;;;0.60;0.47;;;;;;;7.18;100.00;153205.31;5038674;28;20485;-79
2020/12/24 05:29:46;;;;;;;1.10;0.80;;;;;;;7.11;99.85;153187.25;5051407;28;20849;-79
2020/12/24 05:32:27;;;;;;;0.87;0.50;;;;;;;7.04;100.00;153169.16;5037210;28;20610;-80
2020/12/24 05:35:04;;;;;;;0.60;0.50;;;;;;;7.00;99.70;153158.84;5038137;28;20466;-81
2020/12/24 05:37:40;;;;;;;1.17;1.07;;;;;;;6.92;99.57;153138.19;5051537;28;20449;-80
2020/12/24 05:40:21;;;;;;;1.97;0.97;;;;;;;6.91;100.00;153135.59;5053281;28;20469;-79
2020/12/24 05:42:57;;;;;;;1.20;0.60;;;;;;;6.88;100.00;153127.88;5038215;28;20544;-79
2020/12/24 05:45:35;;;;;;;1.00;0.50;;;;;;;6.83;100.00;153114.94;5054300;28;20529;-79
2020/12/24 05:49:15;;;;;;;0.80;0.50;;;;;;;6.75;100.00;153095.56;5034910;28;20782;-79
2020/12/24 05:52:11;;;;;;;0.60;0.50;;;;;;;6.79;100.00;153104.63;5046485;28;20438;-79
2020/12/24 05:54:48;;;;;;;0.50;0.30;;;;;;;6.79;100.00;153104.63;5047549;28;20451;-79
2020/12/24 05:57:24;;;;;;;0.57;0.40;;;;;;;6.79;100.00;153103.31;5033291;28;20433;-79
2020/12/24 06:00:00;;;;;;;5.23;1.10;;;;;;;6.80;100.00;153107.22;5054551;28;20473;-79
2020/12/24 06:02:45;;;;;;;0.80;0.50;;;;;;;6.73;100.00;153090.41;5053691;28;20442;-79
2020/12/24 06:05:24;;;;;;;0.83;0.50;;;;;;;6.72;100.00;153086.56;5038227;28;20466;-79
2020/12/24 06:08:10;;;;;;;0.80;0.50;;;;;;;6.68;100.00;153076.22;5052888;28;20438;-79
2020/12/24 06:10:46;;;;;;;0.80;0.60;;;;;;;6.64;100.00;153065.91;5037149;28;20430;-79
2020/12/24 06:13:26;;;;;;;1.53;0.70;;;;;;;6.61;100.00;153058.16;5051338;28;20446;-80
2020/12/24 06:16:03;;;;;;;0.90;0.50;;;;;;;6.63;100.00;153063.31;5053265;28;20921;-80
2020/12/24 06:18:42;;;;;;;1.90;0.63;;;;;;;6.55;100.00;153043.97;5060134;28;20438;-80
2020/12/24 06:21:18;;;;;;;0.90;0.50;;;;;;;6.58;100.00;153050.41;5066802;28;20926;-80
2020/12/24 06:23:58;;;;;;;0.80;0.70;;;;;;;6.58;100.00;153051.72;5031472;28;20544;-79
2020/12/24 06:26:38;;;;;;;1.00;0.60;;;;;;;6.55;100.00;153042.66;5066529;28;20521;-79
2020/12/24 06:29:15;;;;;;;1.33;0.80;;;;;;;6.56;100.00;153046.56;5023179;28;21003;-80
2020/12/24 06:31:52;;;;;;;1.20;0.70;;;;;;;6.61;100.00;153058.16;5029174;28;20438;-79
2020/12/24 06:34:30;;;;;;;1.63;0.60;;;;;;;6.64;100.00;153067.22;5056339;28;20449;-80
2020/12/24 06:37:12;;;;;;;0.70;0.50;;;;;;;6.66;100.00;153072.38;5056235;28;21090;-79
2020/12/24 06:39:49;;;;;;;1.30;0.47;;;;;;;6.65;100.00;153068.47;5056879;28;20477;-79
2020/12/24 06:42:44;;;;;;;0.70;0.50;;;;;;;6.66;100.00;153072.38;5056410;28;20453;-80
2020/12/24 06:45:37;;;;;;;1.47;0.63;;;;;;;6.68;100.00;153077.50;5042317;28;20442;-79
2020/12/24 06:48:21;;;;;;;1.20;0.77;;;;;;;6.65;99.97;153068.47;5048907;28;20443;-80
2020/12/24 06:51:08;;;;;;;0.90;0.77;;;;;;;6.67;99.92;153073.66;5044770;28;20442;-79
2020/12/24 06:53:45;;;;;;;1.53;0.90;;;;;;;6.64;99.96;153065.91;5062673;28;20850;-79
2020/12/24 06:56:23;;;;;;;1.00;0.70;;;;;;;6.63;99.15;153063.31;5046618;28;20834;-79
2020/12/24 06:59:01;;;;;;;1.27;0.60;;;;;;;6.68;99.42;153076.22;5062683;28;20473;-79
2020/12/24 07:01:36;;;;;;;1.50;0.70;;;;;;;6.69;99.77;153078.81;5043996;28;20524;-79
2020/12/24 07:04:12;;;;;;;1.27;0.70;;;;;;;6.65;99.44;153068.47;5060293;28;20454;-95
2020/12/24 07:06:55;;;;;;;1.13;0.70;;;;;;;6.64;98.86;153067.22;5059453;28;20465;-95
2020/12/24 07:09:43;;;;;;;2.70;0.80;;;;;;;6.72;99.98;153086.56;5076865;28;20434;-79
2020/12/24 07:12:35;;;;;;;1.50;0.60;;;;;;;6.75;98.87;153094.31;5045818;28;20426;-95
2020/12/24 07:15:25;;;;;;;1.90;0.80;;;;;;;6.71;98.30;153083.97;5060426;28;20442;-94
2020/12/24 07:18:11;;;;;;;1.50;0.60;;;;;;;6.66;98.68;153071.06;5044935;28;20434;-94
2020/12/24 07:20:50;;;;;;;1.90;0.90;;;;;;;6.65;98.35;153068.47;5060501;28;20458;-95
2020/12/24 07:23:30;;;;;;;0.90;0.70;;;;;;;6.62;98.17;153060.72;5044524;28;20430;-95
2020/12/24 07:26:07;;;;;;;1.20;0.80;;;;;;;6.63;98.55;153063.31;5060220;28;20536;-95
2020/12/24 07:28:42;;;;;;;1.53;0.87;;;;;;;6.64;96.41;153065.91;5060489;28;20896;-95
2020/12/24 07:31:18;;;;;;;3.03;0.90;;;;;;;6.70;95.57;153082.66;5044469;28;20495;-95
2020/12/24 07:33:53;;;;;;;2.20;0.83;;;;;;;6.74;98.54;153091.72;5044544;28;20433;-95
2020/12/24 07:36:48;;;;;;;1.93;0.67;;;;;;;6.74;95.16;153091.72;5045232;28;20461;-95
2020/12/24 07:39:24;;;;;;;1.67;1.30;;;;;;;6.74;94.48;153093.03;5044899;28;20470;-94
2020/12/24 07:42:00;;;;;;;1.20;1.00;;;;;;;6.70;96.47;153081.38;5043637;28;20434;-95
2020/12/24 07:44:36;;;;;;;4.97;1.10;;;;;;;6.76;95.99;153096.88;5044310;28;20545;-95
2020/12/24 07:47:15;;;;;;;2.70;0.90;;;;;;;6.80;94.04;153107.22;5044801;28;20429;-95
2020/12/24 07:49:51;;;;;;;1.80;0.83;;;;;;;6.79;96.04;153103.31;5044393;28;20446;-96
2020/12/24 07:52:26;;;;;;;1.90;0.87;;;;;;;6.85;96.22;153118.81;5043737;28;20445;-96
2020/12/24 07:55:11;;;;;;;5.33;1.10;;;;;;;6.88;96.16;153127.88;5044405;28;20437;-96
2020/12/24 07:57:46;;;;;;;1.37;0.73;;;;;;;6.81;92.78;153108.47;5045621;28;20434;-95
2020/12/24 08:00:22;;;;;;;5.90;1.43;;;;;;;6.87;91.53;153123.97;5044907;28;20555;-95
2020/12/24 08:03:02;;;;;;;1.60;0.90;;;;;;;6.87;92.56;153125.28;5044468;28;20859;-96
2020/12/24 08:05:37;;;;;;;3.10;0.70;;;;;;;6.88;94.05;153127.88;5044282;28;20473;-95
2020/12/24 08:08:14;;;;;;;1.23;0.83;;;;;;;6.86;91.07;153122.69;5044160;28;20421;-96
2020/12/24 08:10:50;;;;;;;1.93;0.93;;;;;;;6.88;93.79;153127.88;5043143;28;20422;-95
2020/12/24 08:13:26;;;;;;;1.60;0.83;;;;;;;6.95;89.57;153144.63;5060842;28;20840;-95
2020/12/24 08:16:03;;;;;;;2.40;0.83;;;;;;;6.95;90.53;153145.94;5044224;28;20429;-95
2020/12/24 08:18:46;;;;;;;5.90;2.37;;;;;;;6.98;90.62;153153.69;5060265;28;21024;-95
2020/12/24 08:21:26;;;;;;;2.37;1.10;;;;;;;7.00;92.50;153157.53;5043921;28;20785;-95
2020/12/24 08:24:05;;;;;;;3.87;2.40;;;;;;;6.99;91.35;153156.25;5058832;28;20434;-96
2020/12/24 08:26:46;;;;;;;6.77;3.13;;;;;;;7.03;90.42;153166.59;5060488;28;20430;-95
2020/12/24 08:29:22;;;;;;;8.03;3.17;;;;;;;6.99;88.24;153156.25;5045485;28;20446;-96
2020/12/24 08:31:58;;;;;;;2.90;1.37;;;;;;;7.05;87.67;153170.44;5043387;28;20437;-95
2020/12/24 08:34:34;;;;;;;3.60;0.80;;;;;;;7.05;89.50;153170.44;5023850;28;21001;-96
2020/12/24 08:37:10;;;;;;;2.30;0.60;;;;;;;7.01;88.57;153160.13;5039512;28;20422;-95
2020/12/24 08:39:46;;;;;;;1.10;1.00;;;;;;;7.00;88.12;153158.84;5024662;28;20831;-96
2020/12/24 08:42:24;;;;;;;1.70;0.67;;;;;;;6.90;92.36;153133.03;5023982;28;20430;-96
2020/12/24 08:45:05;;;;;;;1.20;1.00;;;;;;;6.82;88.76;153112.38;5028116;28;21010;-95
2020/12/24 08:47:43;;;;;;;2.90;0.60;;;;;;;6.84;90.93;153117.53;5060105;28;20548;-95
2020/12/24 08:50:31;;;;;;;1.73;0.70;;;;;;;6.87;90.30;153125.28;5039498;28;20442;-95
2020/12/24 08:53:23;;;;;;;1.67;0.70;;;;;;;6.81;91.16;153109.78;5041636;28;20810;-79
2020/12/24 08:56:11;;;;;;;1.30;0.47;;;;;;;6.76;90.94;153096.88;5052198;28;20549;-79
2020/12/24 08:58:52;;;;;;;1.70;0.80;;;;;;;6.79;92.92;153103.31;5050262;28;20442;-79
2020/12/24 09:01:28;;;;;;;1.60;0.83;;;;;;;6.81;93.23;153108.47;5049830;28;20434;-79
2020/12/24 09:04:15;;;;;;;1.40;0.63;;;;;;;6.78;92.22;153102.03;5072907;28;20846;-95
2020/12/24 09:06:55;;;;;;;1.47;0.70;;;;;;;6.74;93.09;153091.72;5042808;28;20479;-79
2020/12/24 09:09:32;;;;;;;1.93;0.60;;;;;;;6.73;94.74;153090.41;5052432;28;20442;-79
2020/12/24 09:12:15;;;;;;;1.47;0.60;;;;;;;6.78;91.50;153100.78;5036628;28;20943;-79
2020/12/24 09:15:01;;;;;;;1.10;0.77;;;;;;;6.79;93.46;153104.63;5039266;28;20441;-95
2020/12/24 09:17:37;;;;;;;1.80;0.57;;;;;;;6.80;93.59;153107.22;5042009;28;20442;-79
2020/12/24 09:20:27;;;;;;;2.27;0.90;;;;;;;6.81;93.23;153109.78;5051016;28;20473;-96
2020/12/24 09:23:13;;;;;;;6.30;0.80;;;;;;;6.80;91.57;153107.22;5044567;28;20446;-79
2020/12/24 09:25:51;;;;;;;1.20;0.60;;;;;;;6.82;93.46;153112.38;5036128;28;20426;-80
2020/12/24 09:28:27;;;;;;;0.77;0.50;;;;;;;6.84;92.87;153117.53;5036152;28;20430;-79
2020/12/24 09:31:05;;;;;;;1.20;0.53;;;;;;;6.86;91.44;153122.69;5053212;28;20430;-79
2020/12/24 09:33:56;;;;;;;1.27;0.70;;;;;;;6.83;92.33;153114.94;5074695;28;20971;-96
2020/12/24 09:36:36;;;;;;;1.07;0.63;;;;;;;6.87;91.81;153125.28;5021650;28;20454;-79
2020/12/24 09:42:31;;;;;;;2.93;0.70;;;;;;;6.91;91.41;153134.34;5037931;28;20442;-80
2020/12/24 09:45:11;;;;;;;0.90;0.70;;;;;;;6.94;89.40;153143.34;5036511;28;20885;-79
2020/12/24 09:47:51;;;;;;;4.50;1.23;;;;;;;6.92;91.90;153136.88;5036681;28;20461;-79
2020/12/24 09:50:27;;;;;;;1.03;0.60;;;;;;;6.91;91.24;153134.34;5051016;28;20536;-79
2020/12/24 09:53:02;;;;;;;0.60;0.37;;;;;;;6.95;90.96;153145.94;5050199;28;20472;-79
2020/12/24 09:55:38;;;;;;;1.20;0.80;;;;;;;6.97;91.96;153151.09;5052111;28;20445;-79
2020/12/24 09:58:13;;;;;;;1.87;0.90;;;;;;;6.98;91.50;153153.69;5037211;28;20827;-79
2020/12/24 10:00:49;;;;;;;2.53;0.80;;;;;;;6.96;92.61;153148.53;5050915;28;20477;-79
2020/12/24 10:03:27;;;;;;;0.90;0.70;;;;;;;7.01;89.34;153161.44;5052503;28;20421;-79
2020/12/24 10:06:03;;;;;;;0.80;0.60;;;;;;;7.02;92.98;153162.69;5035373;28;20560;-79
2020/12/24 10:08:38;;;;;;;4.13;1.17;;;;;;;7.03;93.03;153166.59;5056184;28;20669;-79
2020/12/24 10:11:14;;;;;;;2.23;0.70;;;;;;;7.04;90.29;153167.91;5040509;28;20445;-79
2020/12/24 10:13:49;;;;;;;1.33;0.77;;;;;;;7.06;93.03;153174.34;5056414;28;20446;-79
2020/12/24 10:16:27;;;;;;;1.60;0.70;;;;;;;7.08;90.59;153178.19;5055306;28;20878;-79
2020/12/24 10:19:04;;;;;;;1.40;1.27;;;;;;;7.09;89.52;153180.81;5056509;28;20484;-79
2020/12/24 10:21:40;;;;;;;2.57;0.93;;;;;;;7.15;90.25;153197.56;5052559;28;20502;-79
2020/12/24 10:24:16;;;;;;;1.90;1.27;;;;;;;7.13;91.07;153192.41;5055099;28;20469;-79
2020/12/24 10:26:54;;;;;;;2.20;1.00;;;;;;;7.14;90.91;153193.72;5053090;28;20788;-79
2020/12/24 10:29:29;;;;;;;1.37;0.80;;;;;;;7.16;91.02;153200.16;5038254;28;20445;-79
2020/12/24 10:32:05;;;;;;;1.47;0.90;;;;;;;7.27;91.42;153228.56;5054481;28;20449;-95
2020/12/24 10:34:42;;;;;;;1.40;0.80;;;;;;;7.28;92.70;153229.88;5061817;28;20516;-96
2020/12/24 10:37:18;;;;;;;1.70;0.80;;;;;;;7.33;89.87;153244.03;5061464;28;20795;-96
2020/12/24 10:39:54;;;;;;;2.40;1.60;;;;;;;7.40;90.44;153260.84;5062241;28;20461;-95
2020/12/24 10:42:30;;;;;;;1.27;0.80;;;;;;;7.38;90.27;153254.41;5061063;28;20469;-95
2020/12/24 10:45:05;;;;;;;2.53;1.00;;;;;;;7.40;91.84;153259.53;5046592;28;20436;-95
2020/12/24 10:47:41;;;;;;;1.20;1.10;;;;;;;7.46;89.23;153275.06;5046702;28;20491;-95
2020/12/24 10:50:18;;;;;;;1.30;0.70;;;;;;;7.42;87.97;153266.00;5046076;28;20442;-95
2020/12/24 10:52:54;;;;;;;1.53;0.70;;;;;;;7.50;89.68;153285.38;5051587;28;20441;-95
2020/12/24 10:55:29;;;;;;;1.73;0.60;;;;;;;7.49;91.01;153284.13;5061298;28;20421;-96
2020/12/24 10:58:05;;;;;;;4.27;0.97;;;;;;;7.49;89.66;153282.81;5066708;28;20401;-95
2020/12/24 11:00:41;;;;;;;1.63;0.67;;;;;;;7.50;89.25;153286.66;5057685;28;20469;-95
2020/12/24 11:03:17;;;;;;;1.20;0.60;;;;;;;7.58;92.50;153306.03;5048767;28;20422;-95
2020/12/24 11:05:54;;;;;;;0.50;0.40;;;;;;;7.60;89.77;153312.50;5036867;28;20528;-95
2020/12/24 11:08:29;;;;;;;1.23;0.60;;;;;;;7.61;90.16;153315.09;5026730;28;20450;-95
2020/12/24 11:11:05;;;;;;;0.70;0.60;;;;;;;7.64;89.37;153321.56;5026576;28;20435;-95
2020/12/24 11:13:42;;;;;;;1.20;0.80;;;;;;;7.71;89.65;153339.63;5010779;28;20439;-96
2020/12/24 11:16:21;;;;;;;1.37;0.60;;;;;;;7.71;87.65;153339.63;5005675;28;20444;-95
2020/12/24 11:18:57;;;;;;;4.20;0.70;;;;;;;7.68;88.43;153331.84;5004542;28;20436;-95
2020/12/24 11:21:34;;;;;;;1.10;1.00;;;;;;;7.66;90.36;153326.72;5005765;28;20493;-95
2020/12/24 11:24:10;;;;;;;1.33;0.67;;;;;;;7.62;87.54;153316.41;5006029;28;20485;-95
2020/12/24 11:26:46;;;;;;;1.13;0.67;;;;;;;7.63;89.33;153318.94;5005338;28;20440;-96
2020/12/24 11:29:21;;;;;;;0.60;0.40;;;;;;;7.57;89.46;153304.72;5005669;28;20930;-95
2020/12/24 11:31:58;;;;;;;2.20;0.87;;;;;;;7.61;89.24;153313.78;5005146;28;20443;-95
2020/12/24 11:34:33;;;;;;;0.90;0.60;;;;;;;7.61;89.43;153315.09;5004474;28;20444;-95
2020/12/24 11:37:09;;;;;;;1.27;0.40;;;;;;;7.61;89.97;153313.78;5004887;28;20439;-95
2020/12/24 11:39:45;;;;;;;2.17;0.83;;;;;;;7.56;88.51;153300.88;5004779;28;20482;-95
2020/12/24 11:42:20;;;;;;;0.83;0.40;;;;;;;7.56;89.61;153300.88;5004468;28;20471;-95
2020/12/24 11:44:56;;;;;;;1.30;0.40;;;;;;;7.53;89.02;153293.13;5004934;28;20420;-95
2020/12/24 11:47:34;;;;;;;0.80;0.50;;;;;;;7.55;89.39;153299.59;5004385;28;20784;-95
2020/12/24 11:50:09;;;;;;;1.00;0.50;;;;;;;7.61;89.70;153315.09;5004618;28;20428;-95
2020/12/24 11:52:46;;;;;;;0.50;0.30;;;;;;;7.61;87.55;153313.78;5004143;28;20833;-95
2020/12/24 11:55:21;;;;;;;0.70;0.50;;;;;;;7.63;87.31;153320.25;5004404;28;20777;-95
2020/12/24 11:57:57;;;;;;;0.60;0.30;;;;;;;7.60;89.49;153312.50;5004246;28;20854;-95
2020/12/24 12:00:32;;;;;;;1.27;0.43;;;;;;;7.59;88.00;153309.94;5004068;28;21005;-95
2020/12/24 12:03:08;;;;;;;0.83;0.40;;;;;;;7.66;86.90;153326.72;5004740;28;20428;-95
2020/12/24 12:05:43;;;;;;;0.80;0.60;;;;;;;7.66;86.88;153326.72;5011415;28;20474;-94
2020/12/24 12:08:19;;;;;;;1.37;0.60;;;;;;;7.64;88.11;153322.84;5024273;28;20455;-94
2020/12/24 12:10:55;;;;;;;0.77;0.33;;;;;;;7.58;88.68;153306.03;5023439;28;20439;-95
2020/12/24 12:13:31;;;;;;;0.90;0.40;;;;;;;7.58;88.50;153307.34;5039429;28;20890;-95
2020/12/24 12:16:07;;;;;;;0.70;0.50;;;;;;;7.55;86.53;153298.28;5023308;28;20466;-95
2020/12/24 12:18:43;;;;;;;0.60;0.30;;;;;;;7.52;86.81;153290.56;5038769;28;20430;-93
2020/12/24 12:21:19;;;;;;;0.70;0.40;;;;;;;7.52;87.97;153291.81;5023122;28;20482;-94
2020/12/24 12:23:56;;;;;;;0.90;0.60;;;;;;;7.54;88.95;153295.72;5023135;28;20538;-94